createdAt,value
2018-08-11T00:00:59.505Z,1013.12
2018-08-11T00:01:59.519Z,1013.09
2018-08-11T00:02:59.502Z,1013.09
2018-08-11T00:03:59.504Z,1013.09
2018-08-11T00:04:59.520Z,1013.06
2018-08-11T00:05:59.513Z,1013.04
2018-08-11T00:06:59.514Z,1013.04
2018-08-11T00:07:59.526Z,1013.03
2018-08-11T00:08:59.528Z,1013.05
2018-08-11T00:09:59.531Z,1013.06
2018-08-11T00:10:59.527Z,1013.08
2018-08-11T00:11:59.533Z,1013.05
2018-08-11T00:12:59.541Z,1013.07
2018-08-11T00:13:59.543Z,1013.05
2018-08-11T00:14:59.544Z,1013.07
2018-08-11T00:15:59.539Z,1013.03
2018-08-11T00:16:59.553Z,1013.04
2018-08-11T00:17:59.544Z,1013.06
2018-08-11T00:18:59.553Z,1013.02
2018-08-11T00:19:59.569Z,1013.06
2018-08-11T00:20:59.555Z,1013.00
2018-08-11T00:21:59.559Z,1013.03
2018-08-11T00:23:00.198Z,1013.00
2018-08-11T00:23:59.560Z,1013.01
2018-08-11T00:24:59.562Z,1012.99
2018-08-11T00:25:59.575Z,1012.97
2018-08-11T00:26:59.583Z,1012.96
2018-08-11T00:27:59.620Z,1012.96
2018-08-11T00:28:59.580Z,1012.99
2018-08-11T00:29:59.589Z,1013.03
2018-08-11T00:30:59.577Z,1013.08
2018-08-11T00:31:59.580Z,1013.08
2018-08-11T00:33:00.203Z,1013.05
2018-08-11T00:33:59.590Z,1013.07
2018-08-11T00:34:59.593Z,1013.06
2018-08-11T00:35:59.602Z,1013.10
2018-08-11T00:36:59.600Z,1013.08
2018-08-11T00:37:59.603Z,1013.13
2018-08-11T00:38:59.610Z,1013.04
2018-08-11T00:39:59.619Z,1013.14
2018-08-11T00:40:59.635Z,1013.14
2018-08-11T00:41:59.620Z,1013.16
2018-08-11T00:42:59.612Z,1013.11
2018-08-11T00:43:59.631Z,1013.12
2018-08-11T00:44:59.621Z,1013.17
2018-08-11T00:46:00.215Z,1013.13
2018-08-11T00:46:59.614Z,1013.19
2018-08-11T00:47:59.627Z,1013.20
2018-08-11T00:48:59.695Z,1013.29
2018-08-11T00:49:59.638Z,1013.31
2018-08-11T00:50:59.648Z,1013.35
2018-08-11T00:51:59.649Z,1013.33
2018-08-11T00:52:59.648Z,1013.36
2018-08-11T00:53:59.654Z,1013.29
2018-08-11T00:54:59.651Z,1013.38
2018-08-11T00:55:59.655Z,1013.41
2018-08-11T00:56:59.653Z,1013.34
2018-08-11T00:57:59.659Z,1013.47
2018-08-11T00:58:59.730Z,1013.52
2018-08-11T00:59:59.669Z,1013.48
2018-08-11T01:00:59.673Z,1013.55
2018-08-11T01:01:59.670Z,1013.55
2018-08-11T01:02:59.673Z,1013.64
2018-08-11T01:03:59.673Z,1013.73
2018-08-11T01:04:59.681Z,1013.74
2018-08-11T01:05:59.684Z,1013.76
2018-08-11T01:06:59.679Z,1013.64
2018-08-11T01:07:59.691Z,1013.67
2018-08-11T01:08:59.697Z,1013.58
2018-08-11T01:09:59.686Z,1013.62
2018-08-11T01:10:59.753Z,1013.56
2018-08-11T01:11:59.690Z,1013.67
2018-08-11T01:12:59.701Z,1013.49
2018-08-11T01:14:01.296Z,1013.60
2018-08-11T01:14:59.716Z,1013.63
2018-08-11T01:15:59.721Z,1013.59
2018-08-11T01:16:59.710Z,1013.62
2018-08-11T01:17:59.717Z,1013.69
2018-08-11T01:18:59.719Z,1013.72
2018-08-11T01:19:59.713Z,1013.71
2018-08-11T01:20:59.723Z,1013.76
2018-08-11T01:21:59.724Z,1013.77
2018-08-11T01:22:59.724Z,1013.73
2018-08-11T01:23:59.719Z,1013.81
2018-08-11T01:24:59.732Z,1013.80
2018-08-11T01:25:59.726Z,1013.81
2018-08-11T01:26:59.728Z,1013.79
2018-08-11T01:27:59.743Z,1013.69
2018-08-11T01:28:59.742Z,1013.77
2018-08-11T01:29:59.776Z,1013.79
2018-08-11T01:30:59.749Z,1013.85
2018-08-11T01:31:59.767Z,1013.91
2018-08-11T01:32:59.753Z,1014.01
2018-08-11T01:33:59.749Z,1014.03
2018-08-11T01:34:59.761Z,1014.08
2018-08-11T01:35:59.764Z,1014.05
2018-08-11T01:36:59.763Z,1014.12
2018-08-11T01:37:59.776Z,1014.14
2018-08-11T01:38:59.782Z,1014.13
2018-08-11T01:40:00.744Z,1014.10
2018-08-11T01:40:59.776Z,1014.17
2018-08-11T01:41:59.771Z,1014.19
2018-08-11T01:42:59.780Z,1014.14
2018-08-11T01:43:59.808Z,1014.14
2018-08-11T01:44:59.789Z,1014.21
2018-08-11T01:45:59.785Z,1014.18
2018-08-11T01:46:59.781Z,1014.17
2018-08-11T01:47:59.792Z,1014.18
2018-08-11T01:49:01.331Z,1014.25
2018-08-11T01:49:59.793Z,1014.32
2018-08-11T01:50:59.801Z,1014.44
2018-08-11T01:51:59.800Z,1014.38
2018-08-11T01:52:59.831Z,1014.39
2018-08-11T01:53:59.816Z,1014.38
2018-08-11T01:54:59.823Z,1014.33
2018-08-11T01:55:59.816Z,1014.23
2018-08-11T01:56:59.807Z,1014.23
2018-08-11T01:57:59.878Z,1014.23
2018-08-11T01:58:59.809Z,1014.20
2018-08-11T01:59:59.829Z,1014.12
2018-08-11T02:00:59.821Z,1014.11
2018-08-11T02:01:59.827Z,1014.09
2018-08-11T02:02:59.820Z,1014.02
2018-08-11T02:03:59.829Z,1013.99
2018-08-11T02:04:59.843Z,1013.89
2018-08-11T02:05:59.847Z,1013.82
2018-08-11T02:06:59.831Z,1013.93
2018-08-11T02:07:59.853Z,1014.01
2018-08-11T02:08:59.848Z,1014.06
2018-08-11T02:09:59.850Z,1013.98
2018-08-11T02:10:59.911Z,1013.86
2018-08-11T02:11:59.851Z,1013.68
2018-08-11T02:12:59.853Z,1013.60
2018-08-11T02:14:02.818Z,1013.87
2018-08-11T02:14:59.864Z,1013.88
2018-08-11T02:15:59.860Z,1013.81
2018-08-11T02:16:59.867Z,1013.78
2018-08-11T02:17:59.892Z,1013.72
2018-08-11T02:18:59.885Z,1013.79
2018-08-11T02:19:59.876Z,1013.81
2018-08-11T02:20:59.874Z,1013.82
2018-08-11T02:21:59.874Z,1013.87
2018-08-11T02:22:59.887Z,1013.85
2018-08-11T02:23:59.924Z,1013.85
2018-08-11T02:24:59.884Z,1013.82
2018-08-11T02:25:59.877Z,1013.80
2018-08-11T02:26:59.885Z,1013.92
2018-08-11T02:27:59.900Z,1014.00
2018-08-11T02:28:59.922Z,1014.07
2018-08-11T02:29:59.897Z,1014.04
2018-08-11T02:30:59.939Z,1014.02
2018-08-11T02:31:59.908Z,1014.01
2018-08-11T02:32:59.912Z,1013.96
2018-08-11T02:33:59.907Z,1013.97
2018-08-11T02:34:59.918Z,1014.04
2018-08-11T02:35:59.916Z,1014.05
2018-08-11T02:36:59.973Z,1014.01
2018-08-11T02:37:59.923Z,1014.03
2018-08-11T02:38:59.920Z,1014.04
2018-08-11T02:39:59.928Z,1014.01
2018-08-11T02:40:59.925Z,1014.10
2018-08-11T02:41:59.929Z,1014.03
2018-08-11T02:42:59.929Z,1014.01
2018-08-11T02:43:59.926Z,1013.94
2018-08-11T02:44:59.939Z,1013.92
2018-08-11T02:45:59.939Z,1013.86
2018-08-11T02:46:59.931Z,1013.86
2018-08-11T02:47:59.939Z,1013.87
2018-08-11T02:48:59.932Z,1013.81
2018-08-11T02:50:01.831Z,1013.80
2018-08-11T02:51:00.015Z,1013.81
2018-08-11T02:51:59.945Z,1013.80
2018-08-11T02:52:59.964Z,1013.82
2018-08-11T02:53:59.944Z,1013.86
2018-08-11T02:54:59.953Z,1013.87
2018-08-11T02:55:59.971Z,1013.88
2018-08-11T02:56:59.967Z,1013.97
2018-08-11T02:57:59.961Z,1014.04
2018-08-11T02:58:59.967Z,1014.07
2018-08-11T02:59:59.972Z,1014.10
2018-08-11T03:00:59.971Z,1014.10
2018-08-11T03:01:59.987Z,1014.12
2018-08-11T03:02:59.979Z,1014.09
2018-08-11T03:03:59.980Z,1014.08
2018-08-11T03:04:59.975Z,1014.07
2018-08-11T03:05:59.979Z,1014.05
2018-08-11T03:06:59.996Z,1014.00
2018-08-11T03:07:59.983Z,1014.05
2018-08-11T03:08:59.999Z,1014.06
2018-08-11T03:09:59.984Z,1014.05
2018-08-11T03:10:59.994Z,1014.06
2018-08-11T03:12:00.005Z,1014.06
2018-08-11T03:13:00.028Z,1014.08
2018-08-11T03:14:00.111Z,1014.06
2018-08-11T03:15:00.012Z,1014.04
2018-08-11T03:16:00.034Z,1014.05
2018-08-11T03:17:00.015Z,1014.09
2018-08-11T03:18:00.018Z,1014.12
2018-08-11T03:19:00.007Z,1014.11
2018-08-11T03:20:00.020Z,1014.12
2018-08-11T03:21:00.020Z,1014.18
2018-08-11T03:22:00.029Z,1014.20
2018-08-11T03:23:00.029Z,1014.21
2018-08-11T03:24:00.034Z,1014.27
2018-08-11T03:25:00.032Z,1014.33
2018-08-11T03:26:00.031Z,1014.31
2018-08-11T03:47:03.602Z,1014.50
2018-08-11T03:48:01.418Z,1014.54
2018-08-11T03:49:01.572Z,1014.47
2018-08-11T03:50:21.422Z,1014.48
2018-08-11T03:51:01.052Z,1014.49
2018-08-11T03:52:00.452Z,1014.49
2018-08-11T03:53:00.486Z,1014.46
2018-08-11T03:54:00.459Z,1014.50
2018-08-11T03:55:00.524Z,1014.48
2018-08-11T03:56:00.432Z,1014.51
2018-08-11T03:57:00.442Z,1014.52
2018-08-11T03:58:00.432Z,1014.54
2018-08-11T03:59:00.468Z,1014.52
2018-08-11T04:00:00.408Z,1014.54
2018-08-11T04:01:00.481Z,1014.57
2018-08-11T04:02:00.443Z,1014.60
2018-08-11T04:03:01.063Z,1014.60
2018-08-11T04:04:00.471Z,1014.61
2018-08-11T04:05:00.442Z,1014.58
2018-08-11T04:06:00.453Z,1014.61
2018-08-11T04:07:00.436Z,1014.59
2018-08-11T04:08:00.437Z,1014.61
2018-08-11T04:09:00.472Z,1014.58
2018-08-11T04:10:00.426Z,1014.58
2018-08-11T04:11:00.452Z,1014.57
2018-08-11T04:12:00.456Z,1014.53
2018-08-11T04:13:00.440Z,1014.57
2018-08-11T04:14:00.452Z,1014.57
2018-08-11T04:15:00.469Z,1014.59
2018-08-11T04:16:00.463Z,1014.61
2018-08-11T04:17:00.532Z,1014.63
2018-08-11T04:18:00.479Z,1014.59
2018-08-11T04:19:00.512Z,1014.59
2018-08-11T04:20:00.483Z,1014.63
2018-08-11T04:21:00.494Z,1014.68
2018-08-11T04:22:00.507Z,1014.72
2018-08-11T04:23:00.532Z,1014.70
2018-08-11T04:24:00.506Z,1014.72
2018-08-11T04:25:00.807Z,1014.70
2018-08-11T04:26:01.069Z,1014.69
2018-08-11T04:27:00.503Z,1014.64
2018-08-11T04:28:00.536Z,1014.66
2018-08-11T04:29:00.520Z,1014.67
2018-08-11T04:30:00.519Z,1014.62
2018-08-11T04:31:00.523Z,1014.66
2018-08-11T04:32:00.519Z,1014.66
2018-08-11T04:33:00.507Z,1014.65
2018-08-11T04:34:00.532Z,1014.62
2018-08-11T04:35:00.507Z,1014.66
2018-08-11T04:36:00.502Z,1014.63
2018-08-11T04:37:00.494Z,1014.67
2018-08-11T04:38:00.487Z,1014.67
2018-08-11T04:39:00.538Z,1014.69
2018-08-11T04:40:00.539Z,1014.67
2018-08-11T04:41:00.501Z,1014.69
2018-08-11T04:42:00.610Z,1014.68
2018-08-11T04:43:00.577Z,1014.69
2018-08-11T04:44:00.659Z,1014.69
2018-08-11T04:45:00.528Z,1014.72
2018-08-11T04:46:00.543Z,1014.68
2018-08-11T04:47:00.584Z,1014.75
2018-08-11T04:48:00.605Z,1014.78
2018-08-11T04:49:00.568Z,1014.81
2018-08-11T04:50:00.595Z,1014.83
2018-08-11T04:51:00.588Z,1014.83
2018-08-11T04:52:00.606Z,1014.81
2018-08-11T04:53:00.552Z,1014.82
2018-08-11T04:54:00.539Z,1014.94
2018-08-11T04:55:00.583Z,1014.92
2018-08-11T04:56:00.543Z,1014.90
2018-08-11T04:57:00.546Z,1014.92
2018-08-11T04:58:00.591Z,1014.88
2018-08-11T04:59:00.597Z,1014.87
2018-08-11T05:00:00.575Z,1014.89
2018-08-11T05:01:00.543Z,1014.91
2018-08-11T05:02:00.621Z,1014.87
2018-08-11T05:03:00.591Z,1014.95
2018-08-11T05:04:00.581Z,1014.95
2018-08-11T05:05:00.658Z,1014.97
2018-08-11T05:06:00.601Z,1015.02
2018-08-11T05:07:00.658Z,1015.01
2018-08-11T05:08:00.609Z,1014.98
2018-08-11T05:09:00.567Z,1015.03
2018-08-11T05:10:00.600Z,1015.10
2018-08-11T05:11:00.592Z,1015.10
2018-08-11T05:12:00.617Z,1015.12
2018-08-11T05:13:00.609Z,1015.14
2018-08-11T05:14:00.584Z,1015.14
2018-08-11T05:15:00.628Z,1015.18
2018-08-11T05:16:00.605Z,1015.18
2018-08-11T05:17:00.663Z,1015.22
2018-08-11T05:18:00.647Z,1015.22
2018-08-11T05:19:00.632Z,1015.22
2018-08-11T05:20:01.152Z,1015.22
2018-08-11T05:21:00.671Z,1015.23
2018-08-11T05:22:00.623Z,1015.21
2018-08-11T05:23:00.651Z,1015.25
2018-08-11T05:24:00.673Z,1015.23
2018-08-11T05:25:00.634Z,1015.27
2018-08-11T05:26:00.669Z,1015.27
2018-08-11T05:27:00.658Z,1015.26
2018-08-11T05:28:00.652Z,1015.26
2018-08-11T05:29:00.613Z,1015.27
2018-08-11T05:30:00.628Z,1015.26
2018-08-11T05:31:00.645Z,1015.28
2018-08-11T05:32:00.674Z,1015.30
2018-08-11T05:33:00.646Z,1015.25
2018-08-11T05:34:00.699Z,1015.32
2018-08-11T05:35:00.677Z,1015.28
2018-08-11T05:36:00.658Z,1015.28
2018-08-11T05:37:00.687Z,1015.31
2018-08-11T05:38:00.645Z,1015.32
2018-08-11T05:39:00.695Z,1015.36
2018-08-11T05:40:00.701Z,1015.33
2018-08-11T05:41:00.699Z,1015.36
2018-08-11T05:42:00.657Z,1015.40
2018-08-11T05:43:00.717Z,1015.40
2018-08-11T05:44:00.665Z,1015.44
2018-08-11T05:45:00.652Z,1015.49
2018-08-11T05:46:00.687Z,1015.46
2018-08-11T05:47:00.692Z,1015.52
2018-08-11T05:48:00.673Z,1015.50
2018-08-11T05:49:00.668Z,1015.52
2018-08-11T05:50:00.718Z,1015.51
2018-08-11T05:51:00.770Z,1015.49
2018-08-11T05:52:00.716Z,1015.51
2018-08-11T05:53:00.710Z,1015.53
2018-08-11T05:54:00.735Z,1015.49
2018-08-11T05:55:00.714Z,1015.51
2018-08-11T05:56:00.914Z,1015.47
2018-08-11T05:57:00.712Z,1015.49
2018-08-11T05:58:00.729Z,1015.51
2018-08-11T05:59:00.753Z,1015.53
2018-08-11T06:00:00.688Z,1015.54
2018-08-11T06:01:00.767Z,1015.54
2018-08-11T06:02:00.741Z,1015.59
2018-08-11T06:03:00.739Z,1015.63
2018-08-11T06:04:00.750Z,1015.64
2018-08-11T06:05:00.755Z,1015.66
2018-08-11T06:06:00.740Z,1015.67
2018-08-11T06:07:00.736Z,1015.69
2018-08-11T06:08:00.796Z,1015.68
2018-08-11T06:09:00.744Z,1015.69
2018-08-11T06:10:00.746Z,1015.76
2018-08-11T06:11:00.749Z,1015.76
2018-08-11T06:12:00.791Z,1015.74
2018-08-11T06:13:00.817Z,1015.78
2018-08-11T06:14:01.614Z,1015.75
2018-08-11T06:15:00.780Z,1015.74
2018-08-11T06:16:00.834Z,1015.74
2018-08-11T06:17:00.783Z,1015.73
2018-08-11T06:18:00.765Z,1015.78
2018-08-11T06:19:00.739Z,1015.86
2018-08-11T06:20:00.798Z,1015.92
2018-08-11T06:21:00.769Z,1015.97
2018-08-11T06:22:00.797Z,1015.86
2018-08-11T06:23:00.841Z,1015.85
2018-08-11T06:24:00.852Z,1015.92
2018-08-11T06:25:00.884Z,1016.07
2018-08-11T06:26:01.110Z,1015.96
2018-08-11T06:27:01.111Z,1015.94
2018-08-11T06:28:00.827Z,1015.81
2018-08-11T06:29:00.897Z,1015.80
2018-08-11T06:30:00.779Z,1015.82
2018-08-11T06:31:00.808Z,1015.81
2018-08-11T06:32:00.813Z,1015.96
2018-08-11T06:33:00.788Z,1015.96
2018-08-11T06:34:00.859Z,1015.98
2018-08-11T06:35:00.838Z,1016.22
2018-08-11T06:36:00.800Z,1016.13
2018-08-11T06:37:00.852Z,1016.04
2018-08-11T06:38:00.813Z,1016.32
2018-08-11T06:39:00.894Z,1016.16
2018-08-11T06:40:00.892Z,1016.25
2018-08-11T06:41:00.993Z,1016.28
2018-08-11T06:42:00.986Z,1016.35
2018-08-11T06:43:00.885Z,1016.34
2018-08-11T06:44:00.840Z,1016.20
2018-08-11T06:45:00.874Z,1015.99
2018-08-11T06:46:00.866Z,1016.05
2018-08-11T06:47:00.876Z,1015.95
2018-08-11T06:48:00.870Z,1016.19
2018-08-11T06:49:00.834Z,1016.06
2018-08-11T06:50:00.873Z,1016.18
2018-08-11T06:51:00.886Z,1016.34
2018-08-11T06:52:00.850Z,1016.15
2018-08-11T06:53:00.847Z,1016.08
2018-08-11T06:54:00.842Z,1016.23
2018-08-11T06:55:00.884Z,1016.26
2018-08-11T06:56:00.838Z,1016.41
2018-08-11T06:57:00.886Z,1016.27
2018-08-11T06:58:00.891Z,1016.39
2018-08-11T06:59:00.920Z,1016.38
2018-08-11T07:00:00.956Z,1016.43
2018-08-11T07:01:00.933Z,1016.53
2018-08-11T07:02:00.973Z,1016.69
2018-08-11T07:03:00.891Z,1016.51
2018-08-11T07:04:00.966Z,1016.67
2018-08-11T07:05:01.632Z,1016.70
2018-08-11T07:06:00.931Z,1016.44
2018-08-11T07:07:00.920Z,1016.37
2018-08-11T07:08:00.955Z,1016.70
2018-08-11T07:09:00.938Z,1016.77
2018-08-11T07:10:00.919Z,1016.65
2018-08-11T07:11:00.943Z,1016.51
2018-08-11T07:12:00.934Z,1016.49
2018-08-11T07:13:00.953Z,1016.53
2018-08-11T07:14:00.998Z,1016.65
2018-08-11T07:15:00.972Z,1016.57
2018-08-11T07:16:00.974Z,1016.36
2018-08-11T07:17:00.957Z,1016.54
2018-08-11T07:18:01.023Z,1016.63
2018-08-11T07:19:00.978Z,1016.47
2018-08-11T07:20:01.064Z,1016.75
2018-08-11T07:21:01.019Z,1017.16
2018-08-11T07:22:01.071Z,1016.56
2018-08-11T07:23:01.096Z,1016.50
2018-08-11T07:24:01.170Z,1017.02
2018-08-11T07:25:01.080Z,1016.82
2018-08-11T07:26:01.222Z,1017.02
2018-08-11T07:27:01.037Z,1017.03
2018-08-11T07:28:01.042Z,1017.07
2018-08-11T07:29:01.060Z,1017.10
2018-08-11T07:30:01.057Z,1017.15
2018-08-11T07:31:01.049Z,1017.19
2018-08-11T07:32:01.057Z,1017.17
2018-08-11T07:33:01.641Z,1017.21
2018-08-11T07:34:01.081Z,1017.30
2018-08-11T07:35:01.106Z,1017.26
2018-08-11T07:36:01.251Z,1017.32
2018-08-11T07:37:01.097Z,1017.33
2018-08-11T07:38:01.160Z,1017.55
2018-08-11T07:39:01.088Z,1017.53
2018-08-11T07:40:01.178Z,1017.54
2018-08-11T07:41:01.143Z,1017.62
2018-08-11T07:42:01.139Z,1017.59
2018-08-11T07:43:01.132Z,1017.63
2018-08-11T07:44:01.186Z,1017.70
2018-08-11T07:45:01.138Z,1017.75
2018-08-11T07:46:01.251Z,1017.91
2018-08-11T07:47:01.222Z,1016.72
2018-08-11T07:48:01.215Z,1017.92
2018-08-11T07:49:01.205Z,1018.05
2018-08-11T07:50:01.176Z,1018.59
2018-08-11T07:51:01.215Z,1017.08
2018-08-11T07:52:01.210Z,1018.35
2018-08-11T07:53:01.242Z,1018.21
2018-08-11T07:54:01.276Z,1018.34
2018-08-11T07:55:01.257Z,1018.29
2018-08-11T07:56:01.377Z,1018.36
2018-08-11T07:57:01.423Z,1018.44
2018-08-11T07:58:01.297Z,1018.59
2018-08-11T07:59:01.303Z,1018.93
2018-08-11T08:00:01.347Z,1018.79
2018-08-11T08:01:01.289Z,1018.96
2018-08-11T08:02:01.354Z,1018.76
2018-08-11T08:03:01.325Z,1018.83
2018-08-11T08:04:01.354Z,1018.84
2018-08-11T08:05:01.366Z,1018.97
2018-08-11T08:06:01.400Z,1018.94
2018-08-11T08:07:01.360Z,1019.01
2018-08-11T08:08:01.410Z,1018.95
2018-08-11T08:09:01.483Z,1018.01
2018-08-11T08:10:01.435Z,1019.56
2018-08-11T08:11:01.582Z,1019.39
2018-08-11T08:12:01.465Z,1019.22
2018-08-11T08:13:01.466Z,1017.50
2018-08-11T08:14:01.458Z,1019.45
2018-08-11T08:15:01.517Z,1019.45
2018-08-11T08:16:01.499Z,1019.22
2018-08-11T08:17:01.621Z,1019.19
2018-08-11T08:18:01.533Z,1016.75
2018-08-11T08:19:01.493Z,1019.11
2018-08-11T08:20:01.578Z,1018.71
2018-08-11T08:21:01.649Z,1016.95
2018-08-11T08:22:01.530Z,1017.51
2018-08-11T08:23:01.552Z,1017.69
2018-08-11T08:24:01.597Z,1020.08
2018-08-11T08:25:01.602Z,1019.50
2018-08-11T08:26:01.678Z,1016.89
2018-08-11T08:27:01.655Z,1017.01
2018-08-11T08:28:01.669Z,1016.73
2018-08-11T08:29:01.621Z,1019.80
2018-08-11T08:30:01.620Z,1016.96
2018-08-11T08:31:01.678Z,1016.97
2018-08-11T08:32:01.683Z,1016.88
2018-08-11T08:33:01.701Z,1020.32
2018-08-11T08:34:01.726Z,1020.58
2018-08-11T08:35:01.699Z,1016.98
2018-08-11T08:36:01.710Z,1016.94
2018-08-11T08:37:01.706Z,1021.01
2018-08-11T08:38:01.749Z,1022.51
2018-08-11T08:39:01.749Z,1019.46
2018-08-11T08:40:01.720Z,1019.96
2018-08-11T08:41:01.763Z,1036.58
2018-08-11T08:42:01.782Z,1022.76
2018-08-11T08:43:01.785Z,1020.29
2018-08-11T08:44:01.806Z,1019.76
2018-08-11T08:45:01.767Z,1037.29
2018-08-11T08:46:01.810Z,1027.71
2018-08-11T08:47:01.820Z,1018.03
2018-08-11T08:48:01.811Z,1018.29
2018-08-11T08:49:01.884Z,1016.76
2018-08-11T08:50:01.801Z,1016.64
2018-08-11T08:51:01.840Z,1016.69
2018-08-11T08:52:01.831Z,1016.87
2018-08-11T08:53:01.865Z,1016.91
2018-08-11T08:54:01.853Z,1016.88
2018-08-11T08:55:01.875Z,1017.76
2018-08-11T08:56:01.881Z,1040.25
2018-08-11T08:57:01.915Z,1040.11
2018-08-11T08:58:01.935Z,1041.89
2018-08-11T08:59:01.928Z,1042.53
2018-08-11T09:00:01.932Z,1042.64
2018-08-11T09:01:01.968Z,1043.11
2018-08-11T09:02:01.988Z,1043.89
2018-08-11T09:03:01.931Z,1042.93
2018-08-11T09:04:01.954Z,1041.89
2018-08-11T09:05:01.955Z,1033.41
2018-08-11T09:06:02.020Z,1038.17
2018-08-11T09:07:02.014Z,1038.65
2018-08-11T09:08:02.039Z,1031.20
2018-08-11T09:09:02.036Z,1035.38
2018-08-11T09:10:02.064Z,1034.39
2018-08-11T09:11:02.020Z,1029.03
2018-08-11T09:12:02.078Z,1017.58
2018-08-11T09:13:02.082Z,1032.07
2018-08-11T09:14:02.127Z,1031.14
2018-08-11T09:15:02.769Z,1025.42
2018-08-11T09:16:02.095Z,1028.42
2018-08-11T09:17:02.110Z,1024.81
2018-08-11T09:18:02.420Z,1017.27
2018-08-11T09:19:02.143Z,1022.80
2018-08-11T09:20:02.131Z,1017.07
2018-08-11T09:21:02.253Z,1020.92
2018-08-11T09:22:02.157Z,1020.51
2018-08-11T09:23:02.260Z,1020.18
2018-08-11T09:24:02.717Z,1019.94
2018-08-11T09:25:02.206Z,1018.59
2018-08-11T09:26:02.220Z,1017.06
2018-08-11T09:27:02.235Z,1018.99
2018-08-11T09:28:02.296Z,1018.90
2018-08-11T09:29:02.743Z,1018.70
2018-08-11T09:30:02.229Z,1018.59
2018-08-11T09:31:02.298Z,1018.56
2018-08-11T09:32:02.312Z,1018.61
2018-08-11T09:33:02.319Z,1018.67
2018-08-11T09:34:02.340Z,1018.38
2018-08-11T09:35:02.343Z,1018.41
2018-08-11T09:36:02.393Z,1017.36
2018-08-11T09:37:02.366Z,1017.04
2018-08-11T09:38:02.413Z,1018.75
2018-08-11T09:39:02.359Z,1018.34
2018-08-11T09:40:02.408Z,1018.30
2018-08-11T09:41:02.413Z,1018.23
2018-08-11T09:42:02.416Z,1018.27
2018-08-11T09:43:02.419Z,1018.36
2018-08-11T09:44:02.508Z,1018.36
2018-08-11T09:45:02.586Z,1018.55
2018-08-11T09:46:02.914Z,1018.60
2018-08-11T09:47:02.477Z,1018.52
2018-08-11T09:48:02.643Z,1018.59
2018-08-11T09:49:02.747Z,1018.57
2018-08-11T09:50:02.517Z,1018.59
2018-08-11T09:51:02.569Z,1018.52
2018-08-11T09:52:02.571Z,1018.58
2018-08-11T09:53:02.591Z,1018.98
2018-08-11T09:54:02.645Z,1017.76
2018-08-11T09:55:02.605Z,1017.59
2018-08-11T09:56:02.616Z,1017.76
2018-08-11T09:57:02.666Z,1019.15
2018-08-11T09:58:02.650Z,1017.49
2018-08-11T09:59:02.679Z,1018.69
2018-08-11T10:00:02.744Z,1018.82
2018-08-11T10:01:02.749Z,1018.61
2018-08-11T10:02:02.768Z,1018.39
2018-08-11T10:03:02.746Z,1018.34
2018-08-11T10:04:02.797Z,1018.16
2018-08-11T10:05:02.803Z,1018.20
2018-08-11T10:06:02.810Z,1018.18
2018-08-11T10:07:02.871Z,1018.06
2018-08-11T10:08:02.857Z,1018.03
2018-08-11T10:09:02.874Z,1017.87
2018-08-11T10:10:02.882Z,1017.89
2018-08-11T10:11:02.896Z,1017.83
2018-08-11T10:12:02.918Z,1017.51
2018-08-11T10:13:02.935Z,1017.13
2018-08-11T10:14:02.922Z,1017.62
2018-08-11T10:15:02.958Z,1017.83
2018-08-11T10:16:02.975Z,1017.90
2018-08-11T10:17:02.961Z,1017.81
2018-08-11T10:18:02.963Z,1017.09
2018-08-11T10:19:03.025Z,1017.02
2018-08-11T10:20:03.036Z,1017.04
2018-08-11T10:21:03.051Z,1017.12
2018-08-11T10:22:03.028Z,1016.89
2018-08-11T10:23:03.056Z,1016.82
2018-08-11T10:24:03.079Z,1017.60
2018-08-11T10:25:03.133Z,1017.70
2018-08-11T10:26:03.115Z,1017.69
2018-08-11T10:27:03.132Z,1017.63
2018-08-11T10:28:03.120Z,1017.41
2018-08-11T10:29:03.148Z,1017.35
2018-08-11T10:30:03.159Z,1017.37
2018-08-11T10:31:03.177Z,1017.32
2018-08-11T10:32:03.201Z,1016.97
2018-08-11T10:33:03.190Z,1017.25
2018-08-11T10:34:03.340Z,1017.42
2018-08-11T10:35:03.306Z,1016.87
2018-08-11T10:36:03.277Z,1016.88
2018-08-11T10:37:03.331Z,1017.06
2018-08-11T10:38:03.280Z,1017.36
2018-08-11T10:39:03.275Z,1017.38
2018-08-11T10:40:03.324Z,1016.87
2018-08-11T10:41:03.337Z,1017.26
2018-08-11T10:42:03.337Z,1017.09
2018-08-11T10:43:03.358Z,1016.93
2018-08-11T10:44:03.367Z,1016.96
2018-08-11T10:45:03.402Z,1016.77
2018-08-11T10:46:03.372Z,1016.87
2018-08-11T10:47:03.402Z,1017.00
2018-08-11T10:48:03.428Z,1017.02
2018-08-11T10:49:03.479Z,1016.96
2018-08-11T10:50:03.431Z,1017.30
2018-08-11T10:51:03.439Z,1017.13
2018-08-11T10:52:03.472Z,1017.04
2018-08-11T10:53:03.510Z,1016.87
2018-08-11T10:54:03.489Z,1016.78
2018-08-11T10:55:03.519Z,1016.77
2018-08-11T10:56:03.645Z,1016.73
2018-08-11T10:57:03.564Z,1016.72
2018-08-11T10:58:03.570Z,1016.74
2018-08-11T10:59:03.566Z,1016.75
2018-08-11T11:00:03.561Z,1016.76
2018-08-11T11:01:03.567Z,1016.78
2018-08-11T11:02:03.594Z,1016.78
2018-08-11T11:03:03.597Z,1016.81
2018-08-11T11:04:03.677Z,1016.78
2018-08-11T11:05:03.635Z,1016.76
2018-08-11T11:06:03.609Z,1016.79
2018-08-11T11:07:03.633Z,1016.82
2018-08-11T11:08:03.635Z,1016.87
2018-08-11T11:09:03.754Z,1016.91
2018-08-11T11:10:03.641Z,1016.95
2018-08-11T11:11:03.734Z,1017.03
2018-08-11T11:12:03.690Z,1016.99
2018-08-11T11:13:03.707Z,1016.98
2018-08-11T11:14:03.693Z,1017.00
2018-08-11T11:15:03.672Z,1017.06
2018-08-11T11:16:03.718Z,1017.06
2018-08-11T11:17:03.703Z,1017.12
2018-08-11T11:18:03.695Z,1017.13
2018-08-11T11:19:03.706Z,1017.13
2018-08-11T11:20:03.728Z,1017.04
2018-08-11T11:21:03.774Z,1016.98
2018-08-11T11:22:03.785Z,1017.00
2018-08-11T11:23:03.735Z,1017.04
2018-08-11T11:24:03.774Z,1016.99
2018-08-11T11:25:03.837Z,1017.05
2018-08-11T11:26:03.785Z,1017.11
2018-08-11T11:27:03.842Z,1017.01
2018-08-11T11:28:03.808Z,1017.00
2018-08-11T11:29:03.765Z,1017.00
2018-08-11T11:30:03.795Z,1016.92
2018-08-11T11:31:03.794Z,1016.97
2018-08-11T11:32:03.819Z,1016.99
2018-08-11T11:33:03.805Z,1016.93
2018-08-11T11:34:03.839Z,1016.97
2018-08-11T11:35:03.940Z,1017.11
2018-08-11T11:36:03.917Z,1017.00
2018-08-11T11:37:03.952Z,1016.96
2018-08-11T11:38:03.888Z,1016.96
2018-08-11T11:39:03.854Z,1017.12
2018-08-11T11:40:03.874Z,1017.08
2018-08-11T11:41:03.871Z,1017.18
2018-08-11T11:42:03.903Z,1017.07
2018-08-11T11:43:03.984Z,1017.08
2018-08-11T11:44:03.897Z,1016.96
2018-08-11T11:45:04.208Z,1016.87
2018-08-11T11:46:03.914Z,1016.91
2018-08-11T11:47:04.053Z,1016.97
2018-08-11T11:48:03.939Z,1017.09
2018-08-11T11:49:04.040Z,1017.05
2018-08-11T11:50:03.977Z,1017.04
2018-08-11T11:51:03.930Z,1017.03
2018-08-11T11:52:04.022Z,1017.00
2018-08-11T11:53:03.964Z,1017.01
2018-08-11T11:54:03.951Z,1016.96
2018-08-11T11:55:03.968Z,1016.95
2018-08-11T11:56:03.977Z,1016.87
2018-08-11T11:57:03.976Z,1016.89
2018-08-11T11:58:04.007Z,1016.86
2018-08-11T11:59:03.983Z,1016.82
2018-08-11T12:00:04.231Z,1016.89
2018-08-11T12:01:03.996Z,1016.82
2018-08-11T12:02:04.055Z,1016.85
2018-08-11T12:03:04.006Z,1016.81
2018-08-11T12:04:04.020Z,1016.87
2018-08-11T12:05:04.070Z,1016.99
2018-08-11T12:06:04.057Z,1017.02
2018-08-11T12:07:04.040Z,1017.04
2018-08-11T12:08:04.027Z,1017.04
2018-08-11T12:09:04.176Z,1017.08
2018-08-11T12:10:04.820Z,1016.98
2018-08-11T12:11:04.107Z,1017.00
2018-08-11T12:12:04.111Z,1016.97
2018-08-11T12:13:04.114Z,1016.94
2018-08-11T12:14:04.119Z,1016.99
2018-08-11T12:15:04.121Z,1016.96
2018-08-11T12:16:04.123Z,1016.96
2018-08-11T12:17:04.150Z,1016.94
2018-08-11T12:18:04.141Z,1016.91
2018-08-11T12:19:04.171Z,1016.91
2018-08-11T12:20:04.142Z,1016.96
2018-08-11T12:21:04.175Z,1016.86
2018-08-11T12:22:04.165Z,1016.90
2018-08-11T12:23:04.173Z,1016.91
2018-08-11T12:24:04.166Z,1016.88
2018-08-11T12:25:04.208Z,1016.84
2018-08-11T12:26:04.188Z,1016.72